• Join FlightAware (Why Join?)
  • Login
  • US Flag 
11:23PM EDT


 

Airport Tracker/Info


-or-


 

Live Flight TrackerFlight Track Log ✈ DAL6231 ✈ 21-Apr-2013 ✈ KLGA - CYHZ

Flight Track Log - Related Links

Times and Time Zones

All times are in EDT time to prevent confusion due to time zone crossing. See the DAL6231 flight status page for this flight to view local times or setup timezone preferences in your user account.

Time Position Orientation Groundspeed Altitude Reporting Facility
EDT Latitude Longitude Course Direction KTS MPH feet Rate Location/Type
09:29PM 40.7500 -73.8000 28° Northeast 185 213 3,000  Level New York TRACON
09:31PM 40.8467 -73.7322 28° Northeast 230 265 7,300 2,400 Climbing Boston Center
09:32PM 40.9014 -73.6703 41° Northeast 236 272 9,800 2,460 Climbing Boston Center
09:33PM 40.9525 -73.5889 50° Northeast 257 296 12,300 2,100 Climbing Boston Center
09:34PM 41.0178 -73.5131 41° Northeast 285 328 14,100 1,620 Climbing Boston Center
09:35PM 41.0892 -73.4397 38° Northeast 338 389 15,600 1,500 Climbing Boston Center
09:36PM 41.1817 -73.3475 37° Northeast 366 421 17,100 1,260 Climbing Boston Center
09:37PM 41.2639 -73.2408 44° Northeast 383 441 18,200 1,440 Climbing Boston Center
09:38PM 41.3333 -73.1147 54° Northeast 406 467 20,000 1,800 Climbing Boston Center
09:39PM 41.4050 -72.9853 54° Northeast 423 487 21,800 1,380 Climbing Boston Center
09:40PM 41.4764 -72.8531 54° Northeast 435 501 22,800 900 Climbing Boston Center
09:41PM 41.5478 -72.7175 55° Northeast 448 516 23,700 900 Climbing Boston Center
09:42PM 41.6272 -72.5733 54° Northeast 454 522 24,600 960 Climbing Boston Center
09:43PM 41.7336 -72.4594 39° Northeast 474 545 25,700 1,080 Climbing Boston Center
09:44PM 41.8419 -72.3481 37° Northeast 480 552 26,800 1,080 Climbing Boston Center
09:45PM 41.9500 -72.2336 38° Northeast 486 559 27,900 1,080 Climbing Boston Center
09:46PM 42.0478 -72.1297 38° Northeast 496 571 29,000 900 Climbing Boston Center
09:47PM 42.1578 -72.0117 38° Northeast 501 577 29,800 780 Climbing Boston Center
09:48PM 42.2697 -71.8903 39° Northeast 501 577 30,600 780 Climbing Boston Center
09:49PM 42.3817 -71.7711 38° Northeast 501 577 31,400 780 Climbing Boston Center
09:50PM 42.4956 -71.6461 39° Northeast 513 590 32,200 720 Climbing Boston Center
09:51PM 42.6156 -71.5231 37° Northeast 513 590 32,900 780 Climbing Boston Center
09:52PM 42.7292 -71.4000 38° Northeast 520 598 33,800 900 Climbing Boston Center
09:53PM 42.8425 -71.2733 39° Northeast 525 604 34,700 900 Climbing Boston Center
09:54PM 42.9536 -71.1467 40° Northeast 525 604 35,700 960 Climbing Boston Center
09:55PM 43.0647 -71.0247 39° Northeast 517 595 36,700 600 Climbing Boston Center
09:56PM 43.1758 -70.8997 39° Northeast 517 595 37,000 120 Climbing Boston Center
09:57PM 43.2886 -70.7744 39° Northeast 523 602 37,000  Level Boston Center
09:58PM 43.3992 -70.6397 42° Northeast 523 602 37,000  Level Boston Center
09:59PM 43.4903 -70.4797 52° Northeast 523 602 37,000  Level Boston Center
10:00PM 43.5642 -70.3053 60° Northeast 517 595 37,000  Level Boston Center
10:01PM 43.6400 -70.1333 59° Northeast 523 602 37,000  Level Boston Center
10:02PM 43.7217 -69.9492 58° Northeast 517 595 37,000  Level Boston Center
10:03PM 43.7969 -69.7792 58° Northeast 517 595 37,000  Level Boston Center
10:04PM 43.8742 -69.6089 58° Northeast 517 595 37,000  Level Boston Center
10:05PM 43.9492 -69.4350 59° Northeast 517 595 37,000  Level Boston Center
10:06PM 44.0256 -69.2608 59° Northeast 523 602 37,000  Level Boston Center
10:07PM 44.1019 -69.0861 59° Northeast 529 609 37,000  Level Boston Center
10:08PM 44.1778 -68.9081 59° Northeast 529 609 37,000  Level Boston Center
10:09PM 44.2514 -68.7297 60° Northeast 529 609 37,000  Level Boston Center
10:10PM 44.3292 -68.5536 58° Northeast 529 609 37,000  Level Boston Center
10:11PM 44.3847 -68.4164 60° Northeast 529 609 37,000  Level Boston Center
10:12PM 44.4753 -68.2064 59° Northeast 524 603 37,000  Level Boston Center
10:13PM 44.5478 -68.0319 60° Northeast 524 603 37,000  Level Boston Center
10:14PM 44.6106 -67.8756 61° Northeast 524 603 37,000  Level Boston Center
10:15PM 44.6828 -67.7036 59° Northeast 519 597 37,000  Level Boston Center
10:16PM 44.7569 -67.5278 59° Northeast 519 597 37,000  Level Boston Center
10:17PM 44.8283 -67.3461 61° Northeast 519 597 37,000  Level Boston Center
10:18PM 44.8500 -67.2000 78° East 530 610 37,000  Level Moncton Center
10:19PM 44.8833 -67.0167 76° East 530 610 37,000  Level Moncton Center
10:20PM 44.9000 -66.7833 84° East 530 610 37,000  Level Moncton Center
10:21PM 44.9000 -66.6000 90° East 530 610 37,000 -600 Level Moncton Center
10:22PM 44.9000 -66.3833 90° East 520 598 35,900 -1,200 Descending Moncton Center
10:23PM 44.9000 -66.2000 90° East 520 598 34,700 -1,320 Descending Moncton Center
10:24PM 44.9167 -65.9500 85° East 520 598 33,300 -1,440 Descending Moncton Center
10:25PM 44.9167 -65.7667 90° East 530 610 31,900 -1,560 Descending Moncton Center
10:26PM 44.9167 -65.5500 90° East 540 621 30,200 -2,100 Descending Moncton Center
10:27PM 44.9167 -65.3500 90° East 510 587 27,700 -2,700 Descending Moncton Center
10:28PM 44.9167 -65.1500 90° East 490 564 24,900 -2,880 Descending Moncton Center
10:29PM 44.9167 -64.9667 90° East 470 541 22,000 -2,820 Descending Moncton Center
10:30PM 44.9167 -64.8000 90° East 450 518 19,300 -2,400 Descending Moncton Center
10:31PM 44.9167 -64.6333 90° East 420 483 17,200 -2,520 Descending Moncton Center
10:32PM 44.9167 -64.4833 90° East 400 460 14,300 -2,700 Descending Moncton Center
10:33PM 44.8667 -64.3500 118° Southeast 360 414 11,800 -2,100 Descending Moncton Center
10:34PM 44.8500 -64.2333 101° East 320 368 10,100 -1,800 Descending Moncton Center
10:35PM 44.8167 -64.1333 115° Southeast 300 345 8,200 -1,860 Descending Moncton Center
10:36PM 44.7833 -64.0167 112° Southeast 280 322 6,400 -1,800 Descending Moncton Center
10:37PM 44.7667 -63.9333 106° East 270 311 4,600 -1,620 Descending Moncton Center
10:38PM 44.7333 -63.8333 115° Southeast 260 299 3,200 -840 Descending Moncton Center
10:39PM 44.7167 -63.7333 103° East 250 288 3,000 -120 Descending Moncton Center
10:40PM 44.7000 -63.6667 109° East 220 253 3,000 -300 Level Moncton Center
10:41PM 44.7333 -63.6167 47° Northeast 180 207 2,500 -360 Descending Moncton Center
10:42PM 44.7667 -63.6000 20° North 160 184 2,300 -420 Descending Moncton Center
10:43PM 44.8000 -63.5500 47° Northeast 140 161 1,700 -660 Descending Moncton Center
10:44PM 44.8333 -63.5167 35° Northeast 120 138 1,000 -720 Descending Moncton Center